sensor_id;sensor_type;location;lat;lon;timestamp;P1;durP1;ratioP1;P2;durP2;ratioP2
18677;SDS011;9469;51.114;13.914;2024-01-30T00:03:34;26.83;;;17.33;;
18677;SDS011;9469;51.114;13.914;2024-01-30T00:08:41;30.13;;;18.00;;
18677;SDS011;9469;51.114;13.914;2024-01-30T00:13:51;24.80;;;16.70;;
18677;SDS011;9469;51.114;13.914;2024-01-30T00:18:59;28.83;;;18.03;;
18677;SDS011;9469;51.114;13.914;2024-01-30T00:24:12;30.43;;;17.17;;
18677;SDS011;9469;51.114;13.914;2024-01-30T00:29:23;30.50;;;17.13;;
18677;SDS011;9469;51.114;13.914;2024-01-30T00:34:32;26.10;;;17.43;;
18677;SDS011;9469;51.114;13.914;2024-01-30T00:39:40;27.13;;;17.00;;
18677;SDS011;9469;51.114;13.914;2024-01-30T00:44:48;26.13;;;16.27;;
18677;SDS011;9469;51.114;13.914;2024-01-30T00:49:53;26.00;;;16.63;;
18677;SDS011;9469;51.114;13.914;2024-01-30T00:55:00;28.77;;;16.20;;
18677;SDS011;9469;51.114;13.914;2024-01-30T01:00:10;24.87;;;16.27;;
18677;SDS011;9469;51.114;13.914;2024-01-30T01:05:19;29.83;;;16.93;;
18677;SDS011;9469;51.114;13.914;2024-01-30T01:10:25;29.90;;;16.17;;
18677;SDS011;9469;51.114;13.914;2024-01-30T01:15:33;25.77;;;15.33;;
18677;SDS011;9469;51.114;13.914;2024-01-30T01:20:39;25.50;;;15.70;;
18677;SDS011;9469;51.114;13.914;2024-01-30T01:25:47;24.23;;;16.23;;
18677;SDS011;9469;51.114;13.914;2024-01-30T01:30:55;25.90;;;16.10;;
18677;SDS011;9469;51.114;13.914;2024-01-30T01:36:07;28.47;;;16.33;;
18677;SDS011;9469;51.114;13.914;2024-01-30T01:41:13;28.77;;;16.40;;
18677;SDS011;9469;51.114;13.914;2024-01-30T01:46:23;23.57;;;16.27;;
18677;SDS011;9469;51.114;13.914;2024-01-30T01:51:29;23.87;;;15.13;;
18677;SDS011;9469;51.114;13.914;2024-01-30T01:56:38;29.20;;;18.33;;
18677;SDS011;9469;51.114;13.914;2024-01-30T02:01:46;23.90;;;16.67;;
18677;SDS011;9469;51.114;13.914;2024-01-30T02:06:53;23.03;;;15.50;;
18677;SDS011;9469;51.114;13.914;2024-01-30T02:11:59;27.90;;;16.63;;
18677;SDS011;9469;51.114;13.914;2024-01-30T02:17:06;29.63;;;17.10;;
18677;SDS011;9469;51.114;13.914;2024-01-30T02:22:14;27.20;;;16.60;;
18677;SDS011;9469;51.114;13.914;2024-01-30T02:27:20;28.30;;;17.00;;
18677;SDS011;9469;51.114;13.914;2024-01-30T02:32:25;27.43;;;16.13;;
18677;SDS011;9469;51.114;13.914;2024-01-30T02:37:35;27.43;;;18.00;;
18677;SDS011;9469;51.114;13.914;2024-01-30T02:42:40;31.57;;;18.53;;
18677;SDS011;9469;51.114;13.914;2024-01-30T02:47:46;35.30;;;17.77;;
18677;SDS011;9469;51.114;13.914;2024-01-30T02:52:58;33.50;;;18.47;;
18677;SDS011;9469;51.114;13.914;2024-01-30T02:58:03;28.50;;;17.37;;
18677;SDS011;9469;51.114;13.914;2024-01-30T03:03:09;34.87;;;16.60;;
18677;SDS011;9469;51.114;13.914;2024-01-30T03:08:17;34.03;;;19.03;;
18677;SDS011;9469;51.114;13.914;2024-01-30T03:13:23;30.90;;;17.23;;
18677;SDS011;9469;51.114;13.914;2024-01-30T03:18:28;30.37;;;17.40;;
18677;SDS011;9469;51.114;13.914;2024-01-30T03:23:38;28.03;;;18.33;;
18677;SDS011;9469;51.114;13.914;2024-01-30T03:28:47;32.63;;;17.83;;
18677;SDS011;9469;51.114;13.914;2024-01-30T03:33:53;30.43;;;18.80;;
18677;SDS011;9469;51.114;13.914;2024-01-30T03:39:01;25.80;;;17.53;;
18677;SDS011;9469;51.114;13.914;2024-01-30T03:44:06;34.87;;;18.57;;
18677;SDS011;9469;51.114;13.914;2024-01-30T03:49:14;30.40;;;18.83;;
18677;SDS011;9469;51.114;13.914;2024-01-30T03:54:25;34.13;;;17.90;;
18677;SDS011;9469;51.114;13.914;2024-01-30T03:59:30;35.67;;;19.07;;
18677;SDS011;9469;51.114;13.914;2024-01-30T04:04:36;32.53;;;18.10;;
18677;SDS011;9469;51.114;13.914;2024-01-30T04:09:44;31.67;;;19.30;;
18677;SDS011;9469;51.114;13.914;2024-01-30T04:14:54;31.03;;;18.23;;
18677;SDS011;9469;51.114;13.914;2024-01-30T04:20:02;34.87;;;17.63;;
18677;SDS011;9469;51.114;13.914;2024-01-30T04:25:14;30.07;;;17.97;;
18677;SDS011;9469;51.114;13.914;2024-01-30T04:30:23;29.30;;;18.93;;
18677;SDS011;9469;51.114;13.914;2024-01-30T04:35:31;32.63;;;18.33;;
18677;SDS011;9469;51.114;13.914;2024-01-30T04:40:39;27.57;;;18.70;;
18677;SDS011;9469;51.114;13.914;2024-01-30T04:45:46;33.00;;;19.43;;
18677;SDS011;9469;51.114;13.914;2024-01-30T04:50:52;29.87;;;18.67;;
18677;SDS011;9469;51.114;13.914;2024-01-30T04:56:00;33.20;;;19.13;;
18677;SDS011;9469;51.114;13.914;2024-01-30T05:01:06;28.90;;;17.67;;
18677;SDS011;9469;51.114;13.914;2024-01-30T05:06:13;31.77;;;19.10;;
18677;SDS011;9469;51.114;13.914;2024-01-30T05:11:33;28.27;;;19.07;;
18677;SDS011;9469;51.114;13.914;2024-01-30T05:16:42;35.27;;;20.20;;
18677;SDS011;9469;51.114;13.914;2024-01-30T05:21:49;32.63;;;18.83;;
18677;SDS011;9469;51.114;13.914;2024-01-30T05:27:00;32.33;;;17.93;;
18677;SDS011;9469;51.114;13.914;2024-01-30T05:32:05;30.10;;;17.70;;
18677;SDS011;9469;51.114;13.914;2024-01-30T05:37:19;34.30;;;19.27;;
18677;SDS011;9469;51.114;13.914;2024-01-30T05:42:27;28.03;;;17.77;;
18677;SDS011;9469;51.114;13.914;2024-01-30T05:47:33;33.67;;;19.47;;
18677;SDS011;9469;51.114;13.914;2024-01-30T05:52:41;29.00;;;19.13;;
18677;SDS011;9469;51.114;13.914;2024-01-30T05:57:49;34.37;;;18.13;;
18677;SDS011;9469;51.114;13.914;2024-01-30T06:02:59;31.33;;;18.57;;
18677;SDS011;9469;51.114;13.914;2024-01-30T06:08:13;33.23;;;17.70;;
18677;SDS011;9469;51.114;13.914;2024-01-30T06:13:24;29.33;;;17.90;;
18677;SDS011;9469;51.114;13.914;2024-01-30T06:18:30;33.93;;;19.23;;
18677;SDS011;9469;51.114;13.914;2024-01-30T06:23:36;32.70;;;18.33;;
18677;SDS011;9469;51.114;13.914;2024-01-30T06:28:48;26.70;;;17.47;;
18677;SDS011;9469;51.114;13.914;2024-01-30T06:33:56;30.50;;;17.33;;
18677;SDS011;9469;51.114;13.914;2024-01-30T06:39:03;29.23;;;16.63;;
18677;SDS011;9469;51.114;13.914;2024-01-30T06:44:17;26.97;;;17.53;;
18677;SDS011;9469;51.114;13.914;2024-01-30T06:49:27;26.87;;;15.70;;
18677;SDS011;9469;51.114;13.914;2024-01-30T06:54:38;32.37;;;18.93;;
18677;SDS011;9469;51.114;13.914;2024-01-30T06:59:46;29.77;;;17.37;;
18677;SDS011;9469;51.114;13.914;2024-01-30T07:04:52;30.50;;;18.43;;
18677;SDS011;9469;51.114;13.914;2024-01-30T07:09:59;29.30;;;18.53;;
18677;SDS011;9469;51.114;13.914;2024-01-30T07:15:11;31.87;;;18.60;;
18677;SDS011;9469;51.114;13.914;2024-01-30T07:20:21;29.10;;;16.90;;
18677;SDS011;9469;51.114;13.914;2024-01-30T07:25:26;29.87;;;17.13;;
18677;SDS011;9469;51.114;13.914;2024-01-30T07:30:36;30.57;;;17.80;;
18677;SDS011;9469;51.114;13.914;2024-01-30T07:35:47;25.77;;;18.17;;
18677;SDS011;9469;51.114;13.914;2024-01-30T07:40:56;25.03;;;15.53;;
18677;SDS011;9469;51.114;13.914;2024-01-30T07:46:04;25.13;;;15.70;;
18677;SDS011;9469;51.114;13.914;2024-01-30T07:51:09;27.43;;;16.23;;
18677;SDS011;9469;51.114;13.914;2024-01-30T07:56:14;32.07;;;17.50;;
18677;SDS011;9469;51.114;13.914;2024-01-30T08:01:24;31.17;;;16.90;;
18677;SDS011;9469;51.114;13.914;2024-01-30T08:06:33;32.07;;;18.03;;
18677;SDS011;9469;51.114;13.914;2024-01-30T08:11:40;28.03;;;16.57;;
18677;SDS011;9469;51.114;13.914;2024-01-30T08:16:47;27.07;;;16.27;;
18677;SDS011;9469;51.114;13.914;2024-01-30T08:21:54;22.67;;;15.03;;
18677;SDS011;9469;51.114;13.914;2024-01-30T08:26:59;23.47;;;15.23;;
18677;SDS011;9469;51.114;13.914;2024-01-30T08:32:09;22.37;;;15.90;;
18677;SDS011;9469;51.114;13.914;2024-01-30T08:37:15;25.27;;;15.40;;
18677;SDS011;9469;51.114;13.914;2024-01-30T08:42:23;25.80;;;15.17;;
18677;SDS011;9469;51.114;13.914;2024-01-30T08:53:28;25.37;;;15.30;;
18677;SDS011;9469;51.114;13.914;2024-01-30T08:58:34;24.90;;;15.10;;
18677;SDS011;9469;51.114;13.914;2024-01-30T09:03:40;27.07;;;15.53;;
18677;SDS011;9469;51.114;13.914;2024-01-30T09:08:52;24.57;;;14.90;;
18677;SDS011;9469;51.114;13.914;2024-01-30T09:13:59;25.03;;;15.97;;
18677;SDS011;9469;51.114;13.914;2024-01-30T09:19:05;24.83;;;15.83;;
18677;SDS011;9469;51.114;13.914;2024-01-30T09:24:13;24.30;;;15.53;;
18677;SDS011;9469;51.114;13.914;2024-01-30T09:29:18;25.80;;;15.20;;
18677;SDS011;9469;51.114;13.914;2024-01-30T09:34:26;25.97;;;15.13;;
18677;SDS011;9469;51.114;13.914;2024-01-30T09:39:34;26.43;;;15.50;;
18677;SDS011;9469;51.114;13.914;2024-01-30T09:44:39;24.67;;;16.40;;
18677;SDS011;9469;51.114;13.914;2024-01-30T09:49:48;26.33;;;16.53;;
18677;SDS011;9469;51.114;13.914;2024-01-30T09:55:01;26.47;;;16.50;;
18677;SDS011;9469;51.114;13.914;2024-01-30T10:00:12;26.93;;;16.67;;
18677;SDS011;9469;51.114;13.914;2024-01-30T10:05:20;25.00;;;16.20;;
18677;SDS011;9469;51.114;13.914;2024-01-30T10:10:34;26.47;;;16.27;;
18677;SDS011;9469;51.114;13.914;2024-01-30T10:15:42;27.80;;;16.73;;
18677;SDS011;9469;51.114;13.914;2024-01-30T10:20:49;22.57;;;15.73;;
18677;SDS011;9469;51.114;13.914;2024-01-30T10:25:58;26.03;;;17.10;;
18677;SDS011;9469;51.114;13.914;2024-01-30T10:31:07;28.53;;;16.07;;
18677;SDS011;9469;51.114;13.914;2024-01-30T10:36:14;24.77;;;15.90;;
18677;SDS011;9469;51.114;13.914;2024-01-30T10:41:26;23.70;;;14.87;;
18677;SDS011;9469;51.114;13.914;2024-01-30T10:46:37;23.87;;;14.27;;
18677;SDS011;9469;51.114;13.914;2024-01-30T10:51:46;23.67;;;14.57;;
18677;SDS011;9469;51.114;13.914;2024-01-30T10:57:02;23.83;;;15.50;;
18677;SDS011;9469;51.114;13.914;2024-01-30T11:02:11;24.50;;;15.90;;
18677;SDS011;9469;51.114;13.914;2024-01-30T11:07:23;23.50;;;14.67;;
18677;SDS011;9469;51.114;13.914;2024-01-30T11:18:35;21.93;;;14.80;;
18677;SDS011;9469;51.114;13.914;2024-01-30T11:23:42;25.03;;;15.73;;
18677;SDS011;9469;51.114;13.914;2024-01-30T11:28:56;25.03;;;15.83;;
18677;SDS011;9469;51.114;13.914;2024-01-30T11:34:03;25.13;;;15.37;;
18677;SDS011;9469;51.114;13.914;2024-01-30T11:39:11;24.70;;;14.97;;
18677;SDS011;9469;51.114;13.914;2024-01-30T11:50:03;26.70;;;15.97;;
18677;SDS011;9469;51.114;13.914;2024-01-30T11:55:28;22.30;;;14.60;;
18677;SDS011;9469;51.114;13.914;2024-01-30T12:00:36;22.23;;;14.70;;
18677;SDS011;9469;51.114;13.914;2024-01-30T12:05:49;31.13;;;17.03;;
18677;SDS011;9469;51.114;13.914;2024-01-30T12:11:06;26.27;;;15.47;;
18677;SDS011;9469;51.114;13.914;2024-01-30T12:16:16;27.33;;;15.73;;
18677;SDS011;9469;51.114;13.914;2024-01-30T12:21:25;25.73;;;16.03;;
18677;SDS011;9469;51.114;13.914;2024-01-30T12:26:31;26.17;;;15.83;;
18677;SDS011;9469;51.114;13.914;2024-01-30T12:31:36;30.17;;;17.03;;
18677;SDS011;9469;51.114;13.914;2024-01-30T12:36:54;24.73;;;16.83;;
18677;SDS011;9469;51.114;13.914;2024-01-30T12:42:12;22.70;;;14.83;;
18677;SDS011;9469;51.114;13.914;2024-01-30T12:47:23;29.80;;;16.10;;
18677;SDS011;9469;51.114;13.914;2024-01-30T12:52:35;28.53;;;16.07;;
18677;SDS011;9469;51.114;13.914;2024-01-30T12:57:51;23.77;;;16.67;;
18677;SDS011;9469;51.114;13.914;2024-01-30T13:03:01;22.83;;;16.70;;
18677;SDS011;9469;51.114;13.914;2024-01-30T13:08:09;30.90;;;17.83;;
18677;SDS011;9469;51.114;13.914;2024-01-30T13:13:22;30.63;;;18.07;;
18677;SDS011;9469;51.114;13.914;2024-01-30T13:18:33;27.33;;;17.07;;
18677;SDS011;9469;51.114;13.914;2024-01-30T13:23:41;30.43;;;17.83;;
18677;SDS011;9469;51.114;13.914;2024-01-30T13:28:46;30.43;;;17.87;;
18677;SDS011;9469;51.114;13.914;2024-01-30T13:33:51;34.87;;;19.87;;
18677;SDS011;9469;51.114;13.914;2024-01-30T13:39:01;33.23;;;21.07;;
18677;SDS011;9469;51.114;13.914;2024-01-30T13:44:10;29.20;;;18.53;;
18677;SDS011;9469;51.114;13.914;2024-01-30T13:49:18;29.07;;;18.80;;
18677;SDS011;9469;51.114;13.914;2024-01-30T13:54:26;34.27;;;20.27;;
18677;SDS011;9469;51.114;13.914;2024-01-30T13:59:32;34.50;;;18.93;;
18677;SDS011;9469;51.114;13.914;2024-01-30T14:04:40;33.10;;;19.60;;
18677;SDS011;9469;51.114;13.914;2024-01-30T14:09:49;31.50;;;18.70;;
18677;SDS011;9469;51.114;13.914;2024-01-30T14:14:57;32.73;;;20.13;;
18677;SDS011;9469;51.114;13.914;2024-01-30T14:20:17;34.43;;;21.47;;
18677;SDS011;9469;51.114;13.914;2024-01-30T14:25:25;35.80;;;19.60;;
18677;SDS011;9469;51.114;13.914;2024-01-30T14:30:31;31.27;;;21.73;;
18677;SDS011;9469;51.114;13.914;2024-01-30T14:35:38;33.53;;;19.30;;
18677;SDS011;9469;51.114;13.914;2024-01-30T14:40:49;31.33;;;19.80;;
18677;SDS011;9469;51.114;13.914;2024-01-30T14:45:56;35.63;;;20.77;;
18677;SDS011;9469;51.114;13.914;2024-01-30T14:51:02;34.33;;;20.80;;
18677;SDS011;9469;51.114;13.914;2024-01-30T14:56:10;35.57;;;20.20;;
18677;SDS011;9469;51.114;13.914;2024-01-30T15:01:24;35.80;;;21.33;;
18677;SDS011;9469;51.114;13.914;2024-01-30T15:06:35;34.33;;;20.10;;
18677;SDS011;9469;51.114;13.914;2024-01-30T15:11:44;33.67;;;19.27;;
18677;SDS011;9469;51.114;13.914;2024-01-30T15:16:50;36.27;;;20.03;;
18677;SDS011;9469;51.114;13.914;2024-01-30T15:21:55;31.93;;;19.17;;
18677;SDS011;9469;51.114;13.914;2024-01-30T15:27:04;32.53;;;18.40;;
18677;SDS011;9469;51.114;13.914;2024-01-30T15:32:10;34.23;;;20.80;;
18677;SDS011;9469;51.114;13.914;2024-01-30T15:37:16;37.83;;;21.53;;
18677;SDS011;9469;51.114;13.914;2024-01-30T15:42:24;34.57;;;21.17;;
18677;SDS011;9469;51.114;13.914;2024-01-30T15:52:55;40.57;;;21.80;;
18677;SDS011;9469;51.114;13.914;2024-01-30T15:58:03;37.23;;;22.57;;
18677;SDS011;9469;51.114;13.914;2024-01-30T16:03:10;36.40;;;22.23;;
18677;SDS011;9469;51.114;13.914;2024-01-30T16:08:16;40.83;;;22.03;;
18677;SDS011;9469;51.114;13.914;2024-01-30T16:13:24;35.50;;;21.90;;
18677;SDS011;9469;51.114;13.914;2024-01-30T16:18:30;39.33;;;24.23;;
18677;SDS011;9469;51.114;13.914;2024-01-30T16:23:35;45.30;;;24.60;;
18677;SDS011;9469;51.114;13.914;2024-01-30T16:28:43;44.87;;;24.00;;
18677;SDS011;9469;51.114;13.914;2024-01-30T16:33:48;43.97;;;23.83;;
18677;SDS011;9469;51.114;13.914;2024-01-30T16:38:55;45.90;;;23.90;;
18677;SDS011;9469;51.114;13.914;2024-01-30T16:44:04;46.10;;;24.53;;
18677;SDS011;9469;51.114;13.914;2024-01-30T16:49:09;41.17;;;23.60;;
18677;SDS011;9469;51.114;13.914;2024-01-30T16:54:18;40.07;;;22.20;;
18677;SDS011;9469;51.114;13.914;2024-01-30T16:59:26;43.40;;;23.90;;
18677;SDS011;9469;51.114;13.914;2024-01-30T17:04:32;45.63;;;24.87;;
18677;SDS011;9469;51.114;13.914;2024-01-30T17:09:40;40.80;;;22.13;;
18677;SDS011;9469;51.114;13.914;2024-01-30T17:26:34;42.50;;;23.23;;
18677;SDS011;9469;51.114;13.914;2024-01-30T17:31:46;46.10;;;25.57;;
18677;SDS011;9469;51.114;13.914;2024-01-30T17:36:56;44.70;;;24.87;;
18677;SDS011;9469;51.114;13.914;2024-01-30T17:42:05;47.60;;;26.33;;
18677;SDS011;9469;51.114;13.914;2024-01-30T17:47:11;46.40;;;24.50;;
18677;SDS011;9469;51.114;13.914;2024-01-30T17:52:19;49.13;;;25.93;;
18677;SDS011;9469;51.114;13.914;2024-01-30T17:57:28;45.37;;;26.00;;
18677;SDS011;9469;51.114;13.914;2024-01-30T18:02:33;48.90;;;25.07;;
18677;SDS011;9469;51.114;13.914;2024-01-30T18:07:38;46.63;;;25.83;;
18677;SDS011;9469;51.114;13.914;2024-01-30T18:12:48;51.70;;;27.53;;
18677;SDS011;9469;51.114;13.914;2024-01-30T18:17:58;49.37;;;26.37;;
18677;SDS011;9469;51.114;13.914;2024-01-30T18:23:06;48.60;;;25.00;;
18677;SDS011;9469;51.114;13.914;2024-01-30T18:28:14;46.47;;;24.23;;
18677;SDS011;9469;51.114;13.914;2024-01-30T18:33:21;49.90;;;26.27;;
18677;SDS011;9469;51.114;13.914;2024-01-30T18:38:29;46.77;;;25.27;;
18677;SDS011;9469;51.114;13.914;2024-01-30T18:43:39;46.93;;;23.33;;
18677;SDS011;9469;51.114;13.914;2024-01-30T18:48:46;50.67;;;23.97;;
18677;SDS011;9469;51.114;13.914;2024-01-30T18:53:52;53.67;;;27.77;;
18677;SDS011;9469;51.114;13.914;2024-01-30T18:59:00;47.87;;;25.93;;
18677;SDS011;9469;51.114;13.914;2024-01-30T19:04:07;47.90;;;24.87;;
18677;SDS011;9469;51.114;13.914;2024-01-30T19:09:13;49.47;;;26.03;;
18677;SDS011;9469;51.114;13.914;2024-01-30T19:14:21;50.53;;;26.03;;
18677;SDS011;9469;51.114;13.914;2024-01-30T19:19:32;48.70;;;26.80;;
18677;SDS011;9469;51.114;13.914;2024-01-30T19:24:38;50.67;;;26.73;;
18677;SDS011;9469;51.114;13.914;2024-01-30T19:29:46;55.50;;;29.57;;
18677;SDS011;9469;51.114;13.914;2024-01-30T19:34:53;44.63;;;24.97;;
18677;SDS011;9469;51.114;13.914;2024-01-30T19:39:59;49.10;;;25.43;;
18677;SDS011;9469;51.114;13.914;2024-01-30T19:45:08;48.20;;;25.67;;
18677;SDS011;9469;51.114;13.914;2024-01-30T19:50:15;47.47;;;26.10;;
18677;SDS011;9469;51.114;13.914;2024-01-30T19:55:20;49.17;;;25.67;;
18677;SDS011;9469;51.114;13.914;2024-01-30T20:00:31;50.37;;;25.73;;
18677;SDS011;9469;51.114;13.914;2024-01-30T20:05:36;47.17;;;25.33;;
18677;SDS011;9469;51.114;13.914;2024-01-30T20:10:42;47.63;;;27.60;;
18677;SDS011;9469;51.114;13.914;2024-01-30T20:15:50;43.17;;;24.60;;
18677;SDS011;9469;51.114;13.914;2024-01-30T20:20:56;47.97;;;26.03;;
18677;SDS011;9469;51.114;13.914;2024-01-30T20:26:01;48.20;;;25.67;;
18677;SDS011;9469;51.114;13.914;2024-01-30T20:31:13;53.87;;;25.87;;
18677;SDS011;9469;51.114;13.914;2024-01-30T20:36:19;53.57;;;27.50;;
18677;SDS011;9469;51.114;13.914;2024-01-30T20:41:26;48.33;;;25.10;;
18677;SDS011;9469;51.114;13.914;2024-01-30T20:46:40;50.40;;;28.27;;
18677;SDS011;9469;51.114;13.914;2024-01-30T20:51:48;58.50;;;29.07;;
18677;SDS011;9469;51.114;13.914;2024-01-30T20:56:53;52.43;;;26.77;;
18677;SDS011;9469;51.114;13.914;2024-01-30T21:02:01;49.43;;;26.47;;
18677;SDS011;9469;51.114;13.914;2024-01-30T21:07:07;52.80;;;25.77;;
18677;SDS011;9469;51.114;13.914;2024-01-30T21:12:13;46.50;;;23.93;;
18677;SDS011;9469;51.114;13.914;2024-01-30T21:17:21;50.10;;;25.87;;
18677;SDS011;9469;51.114;13.914;2024-01-30T21:22:27;58.77;;;28.10;;
18677;SDS011;9469;51.114;13.914;2024-01-30T21:27:33;48.50;;;25.47;;
18677;SDS011;9469;51.114;13.914;2024-01-30T21:32:45;46.97;;;25.63;;
18677;SDS011;9469;51.114;13.914;2024-01-30T21:37:55;53.03;;;26.47;;
18677;SDS011;9469;51.114;13.914;2024-01-30T21:43:06;50.30;;;26.63;;
18677;SDS011;9469;51.114;13.914;2024-01-30T21:48:14;50.30;;;28.80;;
18677;SDS011;9469;51.114;13.914;2024-01-30T21:53:22;49.93;;;27.33;;
18677;SDS011;9469;51.114;13.914;2024-01-30T21:58:27;49.53;;;24.97;;
18677;SDS011;9469;51.114;13.914;2024-01-30T22:03:35;53.07;;;27.43;;
18677;SDS011;9469;51.114;13.914;2024-01-30T22:08:40;52.80;;;27.40;;
18677;SDS011;9469;51.114;13.914;2024-01-30T22:13:47;52.73;;;26.43;;
18677;SDS011;9469;51.114;13.914;2024-01-30T22:18:57;48.57;;;25.37;;
18677;SDS011;9469;51.114;13.914;2024-01-30T22:24:03;54.17;;;27.57;;
18677;SDS011;9469;51.114;13.914;2024-01-30T22:29:10;44.90;;;26.23;;
18677;SDS011;9469;51.114;13.914;2024-01-30T22:34:20;52.97;;;27.60;;
18677;SDS011;9469;51.114;13.914;2024-01-30T22:39:35;50.90;;;25.57;;
18677;SDS011;9469;51.114;13.914;2024-01-30T22:44:44;49.53;;;26.17;;
18677;SDS011;9469;51.114;13.914;2024-01-30T22:49:51;50.00;;;25.43;;
18677;SDS011;9469;51.114;13.914;2024-01-30T22:55:00;54.57;;;25.97;;
18677;SDS011;9469;51.114;13.914;2024-01-30T23:00:06;53.63;;;26.67;;
18677;SDS011;9469;51.114;13.914;2024-01-30T23:05:19;51.10;;;26.80;;
18677;SDS011;9469;51.114;13.914;2024-01-30T23:10:24;57.07;;;27.50;;
18677;SDS011;9469;51.114;13.914;2024-01-30T23:15:30;52.80;;;26.47;;
18677;SDS011;9469;51.114;13.914;2024-01-30T23:20:38;53.77;;;28.03;;
18677;SDS011;9469;51.114;13.914;2024-01-30T23:25:43;56.93;;;27.27;;
18677;SDS011;9469;51.114;13.914;2024-01-30T23:30:49;52.47;;;27.60;;
18677;SDS011;9469;51.114;13.914;2024-01-30T23:36:01;55.43;;;26.57;;
18677;SDS011;9469;51.114;13.914;2024-01-30T23:41:07;60.27;;;29.20;;
18677;SDS011;9469;51.114;13.914;2024-01-30T23:46:12;65.23;;;27.37;;
18677;SDS011;9469;51.114;13.914;2024-01-30T23:51:20;56.10;;;27.07;;
18677;SDS011;9469;51.114;13.914;2024-01-30T23:56:25;56.23;;;29.17;;
